Time;durP1;ratioP1;P1;durP2;ratioP2;P2;SDS_P1;SDS_P2;PMS_P1;PMS_P2;Temp;Humidity;BMP_temperature;BMP_pressure;BME280_temperature;BME280_humidity;BME280_pressure;Samples;Min_cycle;Max_cycle;Signal;HPM_P1;HPM_P2
2022/11/11 00:01:52;;;;;;;20.58;9.05;;;;;;;7.91;100.00;102707.69;5047476;28;20190;-75
2022/11/11 00:04:36;;;;;;;19.80;9.18;;;;;;;7.91;100.00;102713.88;5062537;28;20205;-75
2022/11/11 00:07:20;;;;;;;20.15;8.52;;;;;;;7.95;100.00;102712.03;5060156;28;20152;-75
2022/11/11 00:10:04;;;;;;;17.95;8.15;;;;;;;7.96;100.00;102717.31;5062266;28;20172;-75
2022/11/11 00:12:48;;;;;;;17.75;8.45;;;;;;;7.94;100.00;102720.91;5062507;28;20043;-75
2022/11/11 00:15:36;;;;;;;25.83;9.45;;;;;;;7.99;100.00;102727.00;5056143;28;20527;-76
2022/11/11 00:27:34;;;;;;;29.75;13.35;;;;;;;7.95;100.00;102728.84;4980234;28;20077;-75
2022/11/11 00:30:18;;;;;;;20.48;9.50;;;;;;;7.98;100.00;102727.88;4976847;28;20063;-75
2022/11/11 00:33:02;;;;;;;15.77;9.25;;;;;;;8.02;100.00;102729.56;4980357;28;20420;-76
2022/11/11 00:35:52;;;;;;;30.52;9.88;;;;;;;8.02;100.00;102746.38;4980541;28;20652;-76
2022/11/11 00:38:46;;;;;;;18.48;9.25;;;;;;;8.05;100.00;102742.81;4975658;28;20049;-76
2022/11/11 00:41:30;;;;;;;26.98;8.43;;;;;;;8.05;100.00;102750.78;4981820;28;20068;-75
2022/11/11 00:44:14;;;;;;;22.95;9.23;;;;;;;8.02;100.00;102761.44;4996325;28;20084;-75
2022/11/11 00:53:15;;;;;;;12.82;7.30;;;;;;;8.02;100.00;102759.66;4980227;28;20065;-75
2022/11/11 00:55:59;;;;;;;26.48;8.57;;;;;;;8.08;100.00;102755.13;4978875;28;20091;-75
2022/11/11 00:58:44;;;;;;;23.65;8.85;;;;;;;8.12;100.00;102748.84;4966224;28;21006;-75
2022/11/11 01:01:28;;;;;;;18.35;8.10;;;;;;;8.17;100.00;102760.25;5020562;28;20051;-76
2022/11/11 01:04:12;;;;;;;20.73;8.60;;;;;;;8.23;100.00;102763.66;5057272;28;20404;-75
2022/11/11 01:06:56;;;;;;;25.15;8.27;;;;;;;8.33;100.00;102764.28;5043083;28;20050;-75
2022/11/11 01:09:40;;;;;;;28.17;9.27;;;;;;;8.36;100.00;102761.59;5053178;28;20055;-76
2022/11/11 01:12:24;;;;;;;19.67;9.68;;;;;;;8.42;100.00;102766.78;5052947;28;20066;-76
2022/11/11 01:15:09;;;;;;;21.30;8.82;;;;;;;8.47;100.00;102764.88;5058527;28;20139;-76
2022/11/11 01:17:53;;;;;;;23.50;9.00;;;;;;;8.51;100.00;102766.56;5045326;28;20125;-75
2022/11/11 01:20:38;;;;;;;17.00;8.07;;;;;;;8.46;100.00;102748.97;5057377;28;20074;-76
2022/11/11 01:23:22;;;;;;;21.45;8.43;;;;;;;8.54;100.00;102749.69;5038350;28;20059;-75
2022/11/11 01:26:17;;;;;;;17.90;8.80;;;;;;;8.60;100.00;102746.84;5057954;28;20105;-75
2022/11/11 01:29:01;;;;;;;14.20;8.18;;;;;;;8.53;100.00;102743.50;5056550;28;20047;-76
2022/11/11 01:31:45;;;;;;;25.10;9.13;;;;;;;8.57;100.00;102745.13;5060537;28;20074;-75
2022/11/11 01:34:29;;;;;;;27.80;10.82;;;;;;;8.55;100.00;102741.66;5060248;28;20134;-75
2022/11/11 01:37:13;;;;;;;22.73;9.73;;;;;;;8.56;100.00;102738.06;5054677;28;20059;-75
2022/11/11 01:39:57;;;;;;;21.95;9.52;;;;;;;8.63;100.00;102735.25;5060196;28;20050;-75
2022/11/11 01:43:07;;;;;;;25.02;12.70;;;;;;;8.62;100.00;102749.47;5060957;28;20174;-76
2022/11/11 01:45:56;;;;;;;21.77;10.80;;;;;;;8.66;100.00;102743.16;5060417;28;20079;-76
2022/11/11 01:52:16;;;;;;;26.58;12.88;;;;;;;8.63;100.00;102736.13;5058384;28;20047;-75
2022/11/11 01:55:17;;;;;;;26.60;12.68;;;;;;;8.68;100.00;102736.88;5053535;28;20103;-75
2022/11/11 01:58:05;;;;;;;28.02;12.27;;;;;;;8.65;100.00;102739.66;5058535;28;20090;-76
2022/11/11 02:00:50;;;;;;;29.45;13.48;;;;;;;8.67;100.00;102735.16;5039527;28;20106;-76
2022/11/11 02:03:39;;;;;;;31.75;13.88;;;;;;;8.72;100.00;102738.56;5057232;28;20126;-73
2022/11/11 02:06:23;;;;;;;35.22;13.50;;;;;;;8.75;100.00;102737.63;5041112;28;20455;-76
2022/11/11 02:09:07;;;;;;;35.08;14.55;;;;;;;8.75;100.00;102741.16;5061994;28;20052;-76
2022/11/11 02:14:59;;;;;;;30.00;14.77;;;;;;;8.77;100.00;102741.97;5064198;28;20050;-75
2022/11/11 02:17:47;;;;;;;29.70;13.82;;;;;;;8.75;100.00;102742.94;5062062;28;20508;-75
2022/11/11 02:20:35;;;;;;;32.05;14.48;;;;;;;8.76;100.00;102736.72;5062807;28;20112;-75
2022/11/11 02:23:34;;;;;;;26.83;13.75;;;;;;;8.77;100.00;102743.78;5063104;28;20944;-76
2022/11/11 02:26:19;;;;;;;34.38;14.07;;;;;;;8.77;100.00;102731.34;5062372;28;20087;-76
2022/11/11 02:29:09;;;;;;;36.63;15.55;;;;;;;8.83;100.00;102732.97;5057786;28;20069;-74
2022/11/11 02:31:55;;;;;;;31.35;14.75;;;;;;;8.85;100.00;102732.94;5059712;28;20607;-75
2022/11/11 02:34:39;;;;;;;40.03;17.23;;;;;;;8.92;100.00;102732.72;5044197;28;20145;-75
2022/11/11 02:37:25;;;;;;;31.67;14.57;;;;;;;8.83;100.00;102730.31;5062068;28;20074;-75
2022/11/11 02:40:13;;;;;;;29.10;14.75;;;;;;;8.86;100.00;102729.38;5058494;28;20055;-75
2022/11/11 02:42:57;;;;;;;35.85;16.30;;;;;;;8.85;100.00;102720.53;5052491;28;20076;-75
2022/11/11 02:45:41;;;;;;;37.00;16.17;;;;;;;8.84;100.00;102723.22;5063710;28;20040;-75
2022/11/11 02:48:25;;;;;;;39.25;15.77;;;;;;;8.81;100.00;102725.03;5063352;28;20669;-75
2022/11/11 02:51:10;;;;;;;32.05;15.55;;;;;;;8.82;100.00;102725.91;5063841;28;20059;-76
2022/11/11 02:53:57;;;;;;;37.42;16.55;;;;;;;8.79;100.00;102720.69;5064825;28;20048;-75
2022/11/11 02:59:44;;;;;;;;;;;;;;;8.86;100.00;102734.69;5064320;28;20527;-75
2022/11/11 03:02:28;;;;;;;31.92;15.90;;;;;;;8.86;100.00;102743.53;5062283;28;20442;-75
2022/11/11 03:05:13;;;;;;;38.58;17.45;;;;;;;8.91;100.00;102740.75;5064445;28;20466;-75
2022/11/11 03:07:57;;;;;;;30.73;14.73;;;;;;;8.92;100.00;102743.38;5059178;28;20654;-75
2022/11/11 03:10:40;;;;;;;42.63;16.63;;;;;;;8.87;100.00;102733.78;5062547;28;20802;-75
2022/11/11 03:13:24;;;;;;;35.63;18.02;;;;;;;8.88;100.00;102731.06;5063915;28;20185;-75
2022/11/11 03:17:38;;;;;;;34.55;15.77;;;;;;;8.89;100.00;102742.59;5056569;28;20075;-76
2022/11/11 03:19:13;;;;;;;36.95;15.43;;;;;;;8.93;100.00;102739.78;5060616;28;20047;-76
2022/11/11 03:21:57;;;;;;;40.10;17.08;;;;;;;8.92;100.00;102740.72;5048900;28;20624;-74
2022/11/11 03:27:44;;;;;;;36.05;16.98;;;;;;;8.81;100.00;102734.81;5062745;28;20051;-76
2022/11/11 03:30:28;;;;;;;31.73;15.38;;;;;;;8.85;100.00;102730.28;5061915;28;20086;-75
2022/11/11 03:33:12;;;;;;;36.08;17.35;;;;;;;8.82;100.00;102724.13;5039331;28;20103;-76
2022/11/11 03:35:56;;;;;;;37.45;15.38;;;;;;;8.78;100.00;102725.09;5056357;28;20059;-76
2022/11/11 03:38:40;;;;;;;40.40;17.35;;;;;;;8.81;100.00;102725.03;5042882;28;20047;-75
2022/11/11 03:41:24;;;;;;;57.03;21.42;;;;;;;8.86;100.00;102726.72;5044478;28;20079;-75
2022/11/11 03:44:08;;;;;;;41.38;20.60;;;;;;;8.81;100.00;102732.16;5055738;28;20060;-75
2022/11/11 03:46:52;;;;;;;42.53;20.13;;;;;;;8.81;100.00;102732.16;5061660;28;20072;-76
2022/11/11 03:49:36;;;;;;;41.90;19.90;;;;;;;8.84;100.00;102732.09;5062853;28;20039;-76
2022/11/11 03:52:20;;;;;;;43.40;20.17;;;;;;;8.80;100.00;102728.63;5043735;28;20155;-76
2022/11/11 03:55:04;;;;;;;50.25;19.92;;;;;;;8.81;100.00;102727.69;5042757;28;20044;-76
2022/11/11 03:57:49;;;;;;;43.53;19.77;;;;;;;8.86;100.00;102721.38;5054771;28;20047;-76
2022/11/11 04:00:33;;;;;;;49.35;21.00;;;;;;;8.84;100.00;102721.44;5060369;28;20144;-74
2022/11/11 04:12:30;;;;;;;45.28;19.95;;;;;;;8.80;100.00;102728.63;5060985;28;20067;-76
2022/11/11 04:21:41;;;;;;;41.42;17.95;;;;;;;8.88;100.00;102741.69;5062143;28;20114;-75
2022/11/11 04:27:28;;;;;;;;;;;;;;;8.81;100.00;102750.75;5054829;28;20051;-76
2022/11/11 04:30:12;;;;;;;43.38;19.67;;;;;;;8.85;100.00;102754.22;5057523;28;20751;-75
2022/11/11 04:32:56;;;;;;;43.58;19.60;;;;;;;8.88;100.00;102756.78;5062445;28;20127;-75
2022/11/11 04:35:40;;;;;;;34.47;17.67;;;;;;;8.84;100.00;102753.38;5057730;28;20123;-76
2022/11/11 04:41:27;;;;;;;38.83;17.90;;;;;;;8.90;100.00;102760.31;5061415;28;20134;-75
2022/11/11 04:47:14;;;;;;;;;;;;;;;8.87;100.00;102760.38;5062179;28;20055;-76
2022/11/11 04:49:58;;;;;;;39.10;16.33;;;;;;;8.84;100.00;102758.69;5061492;28;19974;-75
2022/11/11 04:52:43;;;;;;;36.88;18.45;;;;;;;8.88;100.00;102749.69;5061247;28;20052;-75
2022/11/11 04:58:32;;;;;;;47.63;20.02;;;;;;;8.82;100.00;102755.16;5061102;28;20051;-75
2022/11/11 05:03:14;;;;;;;35.50;17.65;;;;;;;8.84;100.00;102748.03;5043589;28;20587;-75
2022/11/11 05:04:20;;;;;;;32.28;17.05;;;;;;;8.85;100.00;102754.22;5044197;28;20075;-75
2022/11/11 05:10:07;;;;;;;;;;;;;;;8.76;100.00;102755.34;5046302;28;20758;-75
2022/11/11 05:21:19;;;;;;;43.25;18.02;;;;;;;8.76;100.00;102756.19;5051940;28;20073;-76
2022/11/11 05:22:17;;;;;;;50.63;22.67;;;;;;;8.70;100.00;102744.84;5057835;28;20034;-76
2022/11/11 05:28:05;;;;;;;64.70;24.60;;;;;;;8.66;100.00;102745.84;5060787;28;20047;-76
2022/11/11 05:30:49;;;;;;;55.78;23.65;;;;;;;8.66;100.00;102736.06;5060373;28;20043;-75
2022/11/11 05:33:33;;;;;;;59.85;25.98;;;;;;;8.68;100.00;102742.22;5059449;28;20054;-76
2022/11/11 05:36:17;;;;;;;61.30;26.23;;;;;;;8.62;100.00;102737.03;5053753;28;20613;-75
2022/11/11 05:39:01;;;;;;;60.25;28.58;;;;;;;8.57;100.00;102745.13;5047167;28;20139;-75
2022/11/11 05:41:45;;;;;;;68.30;30.00;;;;;;;8.58;100.00;102748.66;5058418;28;20102;-75
2022/11/11 05:44:29;;;;;;;67.10;27.80;;;;;;;8.56;100.00;102742.53;5054272;28;20133;-75
2022/11/11 05:47:14;;;;;;;69.75;30.58;;;;;;;8.60;100.00;102753.97;5058312;28;20064;-75
2022/11/11 05:49:58;;;;;;;74.28;30.48;;;;;;;8.50;100.00;102755.97;5059064;28;20201;-75
2022/11/11 05:52:49;;;;;;;73.63;30.67;;;;;;;8.45;100.00;102752.53;5058915;28;20060;-75
2022/11/11 05:55:33;;;;;;;74.00;30.83;;;;;;;8.46;100.00;102746.31;5044046;28;20097;-75
2022/11/11 05:58:18;;;;;;;79.88;31.98;;;;;;;8.46;100.00;102738.34;5053639;28;20047;-75
2022/11/11 06:01:02;;;;;;;74.28;30.60;;;;;;;8.51;100.00;102744.41;5059521;28;20078;-75
2022/11/11 06:03:46;;;;;;;70.03;28.73;;;;;;;8.52;100.00;102746.16;5060277;28;20051;-75
2022/11/11 06:06:31;;;;;;;71.28;27.80;;;;;;;8.42;100.00;102747.28;5035117;28;20645;-75
2022/11/11 06:09:15;;;;;;;65.13;27.33;;;;;;;8.45;100.00;102758.75;5055021;28;20078;-75
2022/11/11 06:12:00;;;;;;;71.72;26.65;;;;;;;8.47;100.00;102762.22;5059324;28;20100;-76
2022/11/11 06:14:44;;;;;;;59.08;26.10;;;;;;;8.41;100.00;102764.16;5055452;28;20109;-75
2022/11/11 06:17:28;;;;;;;62.78;24.52;;;;;;;8.40;100.00;102762.41;5054319;28;20051;-76
2022/11/11 06:20:12;;;;;;;57.72;23.15;;;;;;;8.34;100.00;102760.75;5052824;28;20110;-75
2022/11/11 06:22:57;;;;;;;53.97;21.58;;;;;;;8.33;100.00;102761.63;5054081;28;20126;-76
2022/11/11 06:28:49;;;;;;;52.67;20.48;;;;;;;8.18;100.00;102761.97;5052308;28;20136;-76
2022/11/11 06:31:34;;;;;;;44.42;20.15;;;;;;;8.07;100.00;102769.31;5055512;28;20568;-75
2022/11/11 06:34:18;;;;;;;39.08;18.35;;;;;;;7.99;100.00;102778.34;5056676;28;20189;-75
2022/11/11 06:37:02;;;;;;;42.42;17.80;;;;;;;7.84;100.00;102786.63;5059426;28;20043;-75
2022/11/11 06:39:45;;;;;;;45.20;18.33;;;;;;;7.79;100.00;102783.19;5047462;28;20060;-75
2022/11/11 06:42:35;;;;;;;36.75;17.40;;;;;;;7.70;100.00;102792.22;5057240;28;20190;-76
2022/11/11 06:45:19;;;;;;;36.80;17.27;;;;;;;7.58;100.00;102796.88;5042325;28;20754;-75
2022/11/11 06:48:04;;;;;;;38.65;17.30;;;;;;;7.52;100.00;102816.47;5054157;28;20105;-75
2022/11/11 06:50:48;;;;;;;38.15;19.42;;;;;;;7.43;100.00;102820.19;5057571;28;20051;-75
2022/11/11 06:53:32;;;;;;;43.83;18.90;;;;;;;7.45;100.00;102823.69;5058249;28;20114;-76
2022/11/11 06:56:16;;;;;;;39.05;16.92;;;;;;;7.41;100.00;102823.75;5060958;28;20070;-75
2022/11/11 06:59:00;;;;;;;40.28;16.55;;;;;;;7.43;100.00;102835.22;5060355;28;20051;-75
2022/11/11 07:01:44;;;;;;;39.13;16.25;;;;;;;7.39;100.00;102834.41;5062185;28;20047;-75
2022/11/11 07:04:28;;;;;;;34.20;16.10;;;;;;;7.39;100.00;102841.50;5061810;28;20093;-75
2022/11/11 07:07:12;;;;;;;32.00;14.50;;;;;;;7.37;100.00;102837.97;5055821;28;20074;-75
2022/11/11 07:09:56;;;;;;;42.22;15.85;;;;;;;7.40;100.00;102837.94;5058960;28;20056;-75
2022/11/11 07:12:41;;;;;;;36.40;15.27;;;;;;;7.33;100.00;102830.97;5057141;28;20606;-75
2022/11/11 07:15:25;;;;;;;33.92;14.75;;;;;;;7.39;100.00;102831.75;5059838;28;20043;-75
2022/11/11 07:18:10;;;;;;;33.15;14.93;;;;;;;7.34;100.00;102825.66;5059527;28;20106;-75
2022/11/11 07:20:55;;;;;;;33.00;14.02;;;;;;;7.33;100.00;102833.63;5059560;28;21052;-76
2022/11/11 07:23:39;;;;;;;30.33;12.20;;;;;;;7.35;100.00;102839.81;5058872;28;20097;-75
2022/11/11 07:26:23;;;;;;;28.02;12.45;;;;;;;7.38;100.00;102843.28;5059478;28;20148;-75
2022/11/11 07:29:07;;;;;;;28.70;11.65;;;;;;;7.35;100.00;102850.41;5060339;28;20052;-75
2022/11/11 07:31:52;;;;;;;26.08;11.43;;;;;;;7.41;100.00;102858.25;5042709;28;20450;-76
2022/11/11 07:34:35;;;;;;;20.45;11.20;;;;;;;7.38;100.00;102869.81;5056601;28;20189;-76
2022/11/11 07:37:19;;;;;;;21.70;10.10;;;;;;;7.39;100.00;102862.75;5044931;28;20055;-75
2022/11/11 07:40:04;;;;;;;26.88;10.95;;;;;;;7.36;100.00;102866.31;5040280;28;20214;-75
2022/11/11 07:42:48;;;;;;;27.23;10.88;;;;;;;7.48;100.00;102868.75;5043875;28;20090;-76
2022/11/11 07:45:32;;;;;;;19.02;9.40;;;;;;;7.55;100.00;102868.66;5056470;28;20074;-76
2022/11/11 07:48:17;;;;;;;22.55;10.23;;;;;;;7.60;100.00;102869.44;5059617;28;20116;-76
2022/11/11 07:51:01;;;;;;;23.95;10.80;;;;;;;7.63;100.00;102875.56;5060498;28;20575;-75
2022/11/11 07:53:45;;;;;;;21.35;9.52;;;;;;;7.63;100.00;102875.56;5052836;28;20051;-75
2022/11/11 07:56:29;;;;;;;17.85;9.55;;;;;;;7.68;100.00;102884.31;5056038;28;20569;-76
2022/11/11 07:59:13;;;;;;;28.05;10.27;;;;;;;7.62;100.00;102887.06;5057965;28;20090;-75
2022/11/11 08:01:58;;;;;;;21.73;9.82;;;;;;;7.77;100.00;102880.59;5043861;28;20436;-76
2022/11/11 08:04:42;;;;;;;20.17;9.85;;;;;;;7.89;100.00;102883.03;5034990;28;20131;-75
2022/11/11 08:07:26;;;;;;;20.88;8.93;;;;;;;7.79;100.00;102890.31;5057059;28;20118;-74
2022/11/11 08:10:10;;;;;;;19.88;8.85;;;;;;;7.84;100.00;102887.56;5058822;28;20122;-75
2022/11/11 08:15:57;;;;;;;20.67;9.82;;;;;;;8.06;100.00;102893.31;5052684;28;20401;-75
2022/11/11 08:18:41;;;;;;;19.77;9.93;;;;;;;8.07;100.00;102897.72;5053134;28;20058;-76
2022/11/11 08:21:25;;;;;;;19.83;9.27;;;;;;;8.15;100.00;102900.25;5053176;28;20149;-75
2022/11/11 08:24:10;;;;;;;17.85;8.63;;;;;;;8.21;100.00;102884.16;5041173;28;20159;-75
2022/11/11 08:26:54;;;;;;;14.23;7.47;;;;;;;8.21;100.00;102885.03;5054830;28;20178;-74
2022/11/11 08:29:38;;;;;;;22.85;9.93;;;;;;;8.27;100.00;102897.31;5054019;28;20043;-74
2022/11/11 08:32:22;;;;;;;18.02;8.55;;;;;;;8.31;100.00;102888.38;5050130;28;20059;-77
2022/11/11 08:35:06;;;;;;;17.42;7.60;;;;;;;8.29;100.00;102888.44;5041961;28;20124;-76
2022/11/11 08:37:52;;;;;;;14.40;6.95;;;;;;;8.34;100.00;102891.00;5057022;28;20059;-76
2022/11/11 08:40:36;;;;;;;18.60;7.60;;;;;;;8.40;100.00;102888.22;5041798;28;20047;-75
2022/11/11 08:43:21;;;;;;;17.67;8.13;;;;;;;8.47;100.00;102902.25;5036069;28;20132;-75
2022/11/11 08:46:06;;;;;;;24.85;9.02;;;;;;;8.51;100.00;102894.19;5056594;28;20105;-76
2022/11/11 08:48:50;;;;;;;15.77;7.63;;;;;;;8.61;100.00;102910.81;5055551;28;20055;-76
2022/11/11 08:51:34;;;;;;;10.90;6.22;;;;;;;8.70;100.00;102909.75;5056789;28;20182;-75
2022/11/11 08:54:18;;;;;;;15.82;7.68;;;;;;;8.77;100.00;102908.69;5044819;28;20044;-77
2022/11/11 08:57:02;;;;;;;19.77;7.22;;;;;;;8.79;100.00;102905.09;5060788;28;20238;-76
2022/11/11 08:59:46;;;;;;;11.73;6.95;;;;;;;8.82;100.00;102912.13;5059853;28;20137;-77
2022/11/11 09:02:30;;;;;;;16.35;8.70;;;;;;;8.78;100.00;102915.75;5060248;28;20182;-75
2022/11/11 09:05:14;;;;;;;13.15;7.95;;;;;;;8.87;100.00;102912.88;5060476;28;20055;-76
2022/11/11 09:08:05;;;;;;;16.30;7.10;;;;;;;8.90;100.00;102903.97;5059800;28;20139;-75
2022/11/11 09:10:49;;;;;;;14.30;7.03;;;;;;;8.97;100.00;102903.78;5059240;28;20046;-76
2022/11/11 09:13:33;;;;;;;16.35;8.02;;;;;;;9.09;100.00;102899.97;5059226;28;20062;-75
2022/11/11 09:16:17;;;;;;;15.80;7.70;;;;;;;9.21;100.00;102902.31;5057457;28;20063;-75
2022/11/11 09:19:01;;;;;;;13.02;7.03;;;;;;;9.32;100.00;102902.06;5039571;28;20502;-76
2022/11/11 09:21:45;;;;;;;12.52;6.97;;;;;;;9.37;100.00;102912.59;5059460;28;20861;-76
2022/11/11 09:24:29;;;;;;;10.93;5.82;;;;;;;9.45;100.00;102908.84;5036135;28;20519;-75
2022/11/11 09:27:13;;;;;;;14.75;6.75;;;;;;;9.52;100.00;102909.53;5055877;28;20069;-76
2022/11/11 09:29:57;;;;;;;14.07;6.78;;;;;;;9.63;100.00;102919.91;5057076;28;20194;-75
2022/11/11 09:32:42;;;;;;;11.35;6.07;;;;;;;9.75;100.00;102916.94;5056534;28;20961;-75
2022/11/11 09:35:26;;;;;;;12.70;6.63;;;;;;;9.79;100.00;102919.50;5039243;28;20039;-76
2022/11/11 09:38:10;;;;;;;10.63;5.78;;;;;;;9.74;100.00;102916.06;5040660;28;20060;-76
2022/11/11 09:41:09;;;;;;;10.73;5.38;;;;;;;9.98;100.00;102913.63;5052296;28;20101;-76
2022/11/11 09:43:56;;;;;;;14.05;5.47;;;;;;;10.02;100.00;102920.63;5053267;28;20111;-75
2022/11/11 09:46:55;;;;;;;13.60;5.55;;;;;;;10.08;100.00;102916.00;5057583;28;20059;-75
2022/11/11 09:49:54;;;;;;;11.95;5.93;;;;;;;10.18;100.00;102916.63;5058598;28;20095;-76
2022/11/11 09:52:48;;;;;;;11.32;5.07;;;;;;;10.35;100.00;102919.72;5058303;28;20106;-76
2022/11/11 09:55:44;;;;;;;10.85;5.60;;;;;;;10.34;100.00;102919.75;5056540;28;20066;-76
2022/11/11 09:58:35;;;;;;;9.15;5.10;;;;;;;10.49;100.00;102907.75;5059818;28;20412;-75
2022/11/11 10:01:26;;;;;;;8.15;5.35;;;;;;;10.48;100.00;102914.03;5035459;28;20433;-76
2022/11/11 10:04:29;;;;;;;10.38;5.28;;;;;;;10.58;100.00;102913.69;5047339;28;20098;-76
2022/11/11 10:07:25;;;;;;;11.52;4.53;;;;;;;10.50;100.00;102915.75;5057318;28;20674;-76
2022/11/11 10:10:23;;;;;;;9.32;4.50;;;;;;;10.50;100.00;102925.53;5059280;28;20117;-75
2022/11/11 10:13:28;;;;;;;11.80;4.30;;;;;;;10.72;100.00;102931.97;5058477;28;20048;-76
2022/11/11 10:16:41;;;;;;;11.73;4.82;;;;;;;10.86;100.00;102929.75;5057015;28;20051;-75
2022/11/11 10:19:34;;;;;;;12.52;4.90;;;;;;;10.86;100.00;102934.22;5051884;28;20163;-76
2022/11/11 10:22:21;;;;;;;10.52;5.38;;;;;;;11.01;100.00;102933.75;5060082;28;20074;-76
2022/11/11 10:25:07;;;;;;;7.50;4.28;;;;;;;10.84;100.00;102944.03;5059689;28;20047;-75
2022/11/11 10:27:55;;;;;;;10.05;5.50;;;;;;;11.04;100.00;102944.31;5054025;28;20637;-76
2022/11/11 10:30:39;;;;;;;7.85;4.15;;;;;;;10.98;100.00;102935.63;5063220;28;20051;-76
2022/11/11 10:33:59;;;;;;;9.07;5.68;;;;;;;11.06;100.00;102938.94;5063842;28;20821;-76
2022/11/11 10:36:48;;;;;;;11.05;6.00;;;;;;;11.28;100.00;102941.78;5062832;28;20059;-75
2022/11/11 10:39:51;;;;;;;8.23;4.25;;;;;;;11.12;100.00;102938.72;5061482;28;20051;-76
2022/11/11 10:42:35;;;;;;;10.10;4.80;;;;;;;11.23;100.00;102935.72;5042572;28;20058;-75
2022/11/11 10:45:28;;;;;;;9.85;4.68;;;;;;;11.20;100.00;102926.03;5041065;28;20760;-76
2022/11/11 10:48:19;;;;;;;14.88;4.35;;;;;;;11.26;100.00;102932.94;5062837;28;20276;-75
2022/11/11 10:51:05;;;;;;;9.57;4.45;;;;;;;11.21;100.00;102932.22;5060725;28;20500;-77
2022/11/11 10:54:03;;;;;;;8.82;4.70;;;;;;;11.39;100.00;102931.59;5048046;28;20035;-77
2022/11/11 10:56:58;;;;;;;9.52;4.40;;;;;;;11.23;100.00;102941.06;5063147;28;20052;-75
2022/11/11 10:59:52;;;;;;;7.88;4.65;;;;;;;11.30;100.00;102938.16;5048025;28;20047;-75
2022/11/11 11:02:47;;;;;;;13.68;3.97;;;;;;;11.34;100.00;102933.56;5063310;28;20075;-75
2022/11/11 11:05:39;;;;;;;14.70;5.65;;;;;;;11.31;100.00;102928.34;5063327;28;20046;-76
2022/11/11 11:08:28;;;;;;;9.07;4.30;;;;;;;11.42;100.00;102934.19;5055013;28;20051;-76
2022/11/11 11:11:37;;;;;;;7.85;4.45;;;;;;;11.37;100.00;102929.00;5061123;28;20091;-76
2022/11/11 11:14:43;;;;;;;10.77;4.40;;;;;;;11.45;100.00;102930.56;5062676;28;20055;-76
2022/11/11 11:18:02;;;;;;;12.07;4.20;;;;;;;11.66;100.00;102935.16;5045288;28;20420;-75
2022/11/11 11:21:04;;;;;;;10.55;4.18;;;;;;;11.60;100.00;102930.91;5041665;28;20135;-77
2022/11/11 11:23:49;;;;;;;10.60;4.60;;;;;;;11.66;100.00;102933.38;5046625;28;20056;-76
2022/11/11 11:26:43;;;;;;;8.77;4.20;;;;;;;11.51;100.00;102916.97;5055908;28;20102;-75
2022/11/11 11:29:34;;;;;;;9.23;4.25;;;;;;;11.53;100.00;102932.03;5060917;28;20404;-75
2022/11/11 11:32:30;;;;;;;13.70;4.57;;;;;;;11.55;100.00;102926.66;5059650;28;20051;-75
2022/11/11 11:35:36;;;;;;;9.48;4.32;;;;;;;11.65;100.00;102926.28;5044845;28;20043;-76
2022/11/11 11:38:19;;;;;;;7.90;4.50;;;;;;;11.62;100.00;102925.50;5040765;28;20118;-77
2022/11/11 11:41:03;;;;;;;9.80;4.70;;;;;;;11.57;100.00;102916.75;5038556;28;20928;-76
2022/11/11 11:43:47;;;;;;;12.25;3.90;;;;;;;11.56;100.00;102920.38;5060179;28;20051;-76
2022/11/11 11:46:44;;;;;;;7.45;4.32;;;;;;;11.55;100.00;102918.63;5056405;28;20075;-76
2022/11/11 11:50:06;;;;;;;9.65;3.95;;;;;;;11.57;100.00;102914.97;5059125;28;20101;-75
2022/11/11 11:53:00;;;;;;;11.27;4.57;;;;;;;11.51;100.00;102919.66;5060830;28;20093;-75
2022/11/11 11:55:53;;;;;;;9.93;4.38;;;;;;;11.49;100.00;102924.16;5056460;28;20483;-75
2022/11/11 11:58:57;;;;;;;6.15;4.10;;;;;;;11.48;100.00;102923.28;5052609;28;20047;-76
2022/11/11 12:01:51;;;;;;;11.77;4.28;;;;;;;11.48;100.00;102919.75;5058544;28;20455;-76
2022/11/11 12:04:57;;;;;;;6.57;4.22;;;;;;;11.59;100.00;102923.78;5061467;28;20047;-75
2022/11/11 12:08:08;;;;;;;10.55;4.40;;;;;;;11.63;100.00;102924.56;5060019;28;20113;-76
2022/11/11 12:11:04;;;;;;;7.78;4.18;;;;;;;11.57;100.00;102920.31;5060440;28;20067;-76
2022/11/11 12:13:58;;;;;;;9.50;4.75;;;;;;;11.47;100.00;102918.88;5062056;28;20174;-76
2022/11/11 12:17:06;;;;;;;5.25;4.30;;;;;;;11.33;100.00;102918.47;5056016;28;20086;-74
2022/11/11 12:20:00;;;;;;;6.97;4.65;;;;;;;11.39;100.00;102913.78;5036519;28;20218;-75
2022/11/11 12:23:38;;;;;;;9.15;4.03;;;;;;;11.44;100.00;102912.75;5059733;28;20548;-76
2022/11/11 12:26:44;;;;;;;12.88;4.05;;;;;;;11.53;100.00;102921.34;4998364;28;20465;-75
2022/11/11 12:29:31;;;;;;;8.95;4.43;;;;;;;11.43;100.00;102913.69;4985485;28;20189;-75
2022/11/11 12:32:17;;;;;;;9.48;4.63;;;;;;;11.51;100.00;102909.84;4998130;28;20052;-75
2022/11/11 12:35:16;;;;;;;8.77;4.45;;;;;;;11.61;100.00;102895.22;4998766;28;20052;-75
2022/11/11 12:38:31;;;;;;;9.13;4.55;;;;;;;11.59;100.00;102888.19;4984491;28;20064;-76
2022/11/11 12:41:34;;;;;;;6.75;3.85;;;;;;;11.80;100.00;102886.59;4999273;28;20136;-76
2022/11/11 12:44:29;;;;;;;9.27;3.70;;;;;;;11.82;100.00;102884.75;4990664;28;20149;-76
2022/11/11 12:47:31;;;;;;;9.65;4.43;;;;;;;11.79;100.00;102874.13;4984548;28;20142;-76
2022/11/11 12:50:21;;;;;;;9.98;4.20;;;;;;;11.97;100.00;102886.88;4998370;28;20230;-76
2022/11/11 12:53:12;;;;;;;11.25;4.45;;;;;;;11.96;100.00;102884.25;4998002;28;20549;-76
2022/11/11 12:56:16;;;;;;;11.02;5.00;;;;;;;11.91;100.00;102884.41;4995825;28;20177;-76
2022/11/11 12:59:16;;;;;;;7.80;4.80;;;;;;;12.03;100.00;102883.09;5005973;28;20047;-76
2022/11/11 13:02:19;;;;;;;12.00;4.75;;;;;;;11.95;100.00;102883.38;5058652;28;20047;-75
2022/11/11 13:05:22;;;;;;;12.48;5.38;;;;;;;11.93;100.00;102888.78;5058675;28;20055;-75
2022/11/11 13:08:18;;;;;;;;;;;;;;;11.86;100.00;102883.72;5060001;28;20090;-75
2022/11/11 13:11:28;;;;;;;8.88;4.55;;;;;;;12.03;100.00;102877.75;5059751;28;19931;-76
2022/11/11 13:14:44;;;;;;;8.00;4.95;;;;;;;11.89;100.00;102886.25;5056874;28;20039;-75
2022/11/11 13:17:31;;;;;;;9.93;4.93;;;;;;;11.76;100.00;102891.16;5045094;28;20070;-75
2022/11/11 13:20:44;;;;;;;15.73;6.50;;;;;;;11.87;100.00;102893.47;5053775;28;20079;-76
2022/11/11 13:23:28;;;;;;;18.38;5.43;;;;;;;11.91;100.00;102890.63;5054689;28;20063;-76
2022/11/11 13:26:33;;;;;;;9.23;4.78;;;;;;;11.84;100.00;102891.75;5056463;28;20051;-75
2022/11/11 13:30:02;;;;;;;10.13;4.57;;;;;;;11.83;100.00;102879.34;5056266;28;20052;-75
2022/11/11 13:33:03;;;;;;;10.20;4.55;;;;;;;11.78;100.00;102883.94;5040383;28;20117;-77
2022/11/11 13:36:00;;;;;;;12.43;4.90;;;;;;;11.74;100.00;102884.09;5023955;28;20160;-75
2022/11/11 13:38:49;;;;;;;6.90;3.78;;;;;;;11.86;100.00;102881.03;5035069;28;20044;-73
2022/11/11 13:41:39;;;;;;;11.13;4.43;;;;;;;11.79;100.00;102882.13;5048076;28;20054;-75
2022/11/11 13:44:52;;;;;;;8.85;4.63;;;;;;;11.78;100.00;102881.25;5050032;28;20642;-76
2022/11/11 13:47:42;;;;;;;11.05;5.20;;;;;;;11.80;100.00;102883.91;5052579;28;20078;-75
2022/11/11 13:50:39;;;;;;;9.15;5.45;;;;;;;11.79;100.00;102887.47;5053620;28;20908;-75
2022/11/11 13:53:31;;;;;;;8.57;4.15;;;;;;;11.77;100.00;102894.69;5034458;28;20047;-75
2022/11/11 13:56:41;;;;;;;12.70;5.40;;;;;;;11.73;100.00;102893.06;5050358;28;20145;-75
2022/11/11 13:59:36;;;;;;;7.72;4.63;;;;;;;11.71;100.00;102886.91;5050542;28;20594;-75
2022/11/11 14:02:19;;;;;;;13.25;5.32;;;;;;;11.68;100.00;102886.06;5015407;28;20059;-76
2022/11/11 14:05:04;;;;;;;7.07;4.53;;;;;;;11.63;100.00;102882.69;5048741;28;20044;-75
2022/11/11 14:07:55;;;;;;;15.02;5.60;;;;;;;11.65;100.00;102879.97;5055495;28;20051;-76
2022/11/11 14:10:39;;;;;;;12.52;6.68;;;;;;;11.58;100.00;102884.63;5045091;28;20106;-76